sensor_id;sensor_type;location;lat;lon;timestamp;P1;durP1;ratioP1;P2;durP2;ratioP2
70535;SDS011;58089;48.752;11.338;2022-11-21T05:02:26;3.00;;;0.98;;
70535;SDS011;58089;48.752;11.338;2022-11-21T05:04:52;3.30;;;0.70;;
70535;SDS011;58089;48.752;11.338;2022-11-21T05:07:17;3.33;;;0.67;;
70535;SDS011;58089;48.752;11.338;2022-11-21T05:09:42;4.43;;;1.00;;
70535;SDS011;58089;48.752;11.338;2022-11-21T05:12:08;3.85;;;0.70;;
70535;SDS011;58089;48.752;11.338;2022-11-21T05:14:52;2.50;;;0.40;;
70535;SDS011;58089;48.752;11.338;2022-11-21T05:17:18;3.50;;;0.50;;
70535;SDS011;58089;48.752;11.338;2022-11-21T05:19:43;2.60;;;0.30;;
70535;SDS011;58089;48.752;11.338;2022-11-21T05:22:08;3.40;;;0.60;;
70535;SDS011;58089;48.752;11.338;2022-11-21T05:24:34;3.23;;;0.40;;
70535;SDS011;58089;48.752;11.338;2022-11-21T05:26:59;3.63;;;0.80;;
70535;SDS011;58089;48.752;11.338;2022-11-21T05:29:24;2.70;;;0.37;;
70535;SDS011;58089;48.752;11.338;2022-11-21T05:31:50;3.60;;;0.80;;
70535;SDS011;58089;48.752;11.338;2022-11-21T05:34:15;3.00;;;0.50;;
70535;SDS011;58089;48.752;11.338;2022-11-21T05:36:40;5.23;;;1.43;;
70535;SDS011;58089;48.752;11.338;2022-11-21T05:39:05;4.60;;;1.47;;
70535;SDS011;58089;48.752;11.338;2022-11-21T05:41:31;3.90;;;0.73;;
70535;SDS011;58089;48.752;11.338;2022-11-21T05:43:56;4.73;;;0.60;;
70535;SDS011;58089;48.752;11.338;2022-11-21T05:46:22;3.30;;;0.50;;
70535;SDS011;58089;48.752;11.338;2022-11-21T05:48:49;2.92;;;0.50;;
70535;SDS011;58089;48.752;11.338;2022-11-21T05:51:15;3.25;;;0.40;;
70535;SDS011;58089;48.752;11.338;2022-11-21T05:53:41;4.70;;;0.50;;
70535;SDS011;58089;48.752;11.338;2022-11-21T05:56:07;4.15;;;0.70;;
70535;SDS011;58089;48.752;11.338;2022-11-21T05:58:34;3.57;;;0.70;;
70535;SDS011;58089;48.752;11.338;2022-11-21T06:00:59;3.20;;;0.60;;
70535;SDS011;58089;48.752;11.338;2022-11-21T06:03:25;3.23;;;0.60;;
70535;SDS011;58089;48.752;11.338;2022-11-21T06:05:52;3.95;;;0.60;;
70535;SDS011;58089;48.752;11.338;2022-11-21T06:08:40;4.28;;;1.00;;
70535;SDS011;58089;48.752;11.338;2022-11-21T06:11:10;5.32;;;1.85;;
70535;SDS011;58089;48.752;11.338;2022-11-21T06:13:37;4.13;;;0.80;;
70535;SDS011;58089;48.752;11.338;2022-11-21T06:16:04;3.90;;;0.70;;
70535;SDS011;58089;48.752;11.338;2022-11-21T06:18:32;4.40;;;0.98;;
70535;SDS011;58089;48.752;11.338;2022-11-21T06:20:59;4.27;;;0.87;;
70535;SDS011;58089;48.752;11.338;2022-11-21T06:23:28;5.18;;;0.88;;
70535;SDS011;58089;48.752;11.338;2022-11-21T06:25:57;4.33;;;0.90;;
70535;SDS011;58089;48.752;11.338;2022-11-21T06:28:24;4.78;;;1.00;;
70535;SDS011;58089;48.752;11.338;2022-11-21T15:35:40;12.27;;;1.77;;
70535;SDS011;58089;48.752;11.338;2022-11-21T15:38:15;11.18;;;1.13;;
70535;SDS011;58089;48.752;11.338;2022-11-21T15:41:04;14.27;;;2.13;;
70535;SDS011;58089;48.752;11.338;2022-11-21T15:43:48;8.90;;;1.70;;
70535;SDS011;58089;48.752;11.338;2022-11-21T15:48:43;9.70;;;2.40;;
70535;SDS011;58089;48.752;11.338;2022-11-21T15:51:19;4.80;;;1.90;;
70535;SDS011;58089;48.752;11.338;2022-11-21T15:53:46;5.28;;;0.93;;
70535;SDS011;58089;48.752;11.338;2022-11-21T15:56:13;5.23;;;0.80;;
70535;SDS011;58089;48.752;11.338;2022-11-21T15:58:39;7.30;;;0.93;;
70535;SDS011;58089;48.752;11.338;2022-11-21T16:01:05;4.30;;;0.77;;
70535;SDS011;58089;48.752;11.338;2022-11-21T16:03:36;4.57;;;0.98;;
70535;SDS011;58089;48.752;11.338;2022-11-21T16:06:01;8.40;;;2.23;;
70535;SDS011;58089;48.752;11.338;2022-11-21T16:08:27;11.03;;;5.10;;
70535;SDS011;58089;48.752;11.338;2022-11-21T16:10:52;11.67;;;4.30;;
70535;SDS011;58089;48.752;11.338;2022-11-21T16:13:17;8.67;;;3.00;;
70535;SDS011;58089;48.752;11.338;2022-11-21T16:15:42;8.43;;;1.83;;
70535;SDS011;58089;48.752;11.338;2022-11-21T16:18:08;7.63;;;1.00;;
70535;SDS011;58089;48.752;11.338;2022-11-21T16:20:33;8.80;;;2.30;;
70535;SDS011;58089;48.752;11.338;2022-11-21T16:22:59;10.17;;;1.80;;
70535;SDS011;58089;48.752;11.338;2022-11-21T16:25:24;9.77;;;1.80;;
70535;SDS011;58089;48.752;11.338;2022-11-21T16:27:49;16.80;;;5.20;;
70535;SDS011;58089;48.752;11.338;2022-11-21T16:30:15;11.33;;;5.77;;
70535;SDS011;58089;48.752;11.338;2022-11-21T16:32:40;9.33;;;4.00;;
70535;SDS011;58089;48.752;11.338;2022-11-21T16:35:05;10.20;;;3.37;;
70535;SDS011;58089;48.752;11.338;2022-11-21T16:37:31;11.60;;;4.13;;
70535;SDS011;58089;48.752;11.338;2022-11-21T16:39:56;13.13;;;4.00;;
70535;SDS011;58089;48.752;11.338;2022-11-21T16:42:22;11.07;;;3.73;;
70535;SDS011;58089;48.752;11.338;2022-11-21T16:44:47;9.97;;;4.17;;
70535;SDS011;58089;48.752;11.338;2022-11-21T16:47:12;9.73;;;3.90;;
70535;SDS011;58089;48.752;11.338;2022-11-21T16:49:38;12.13;;;4.10;;
70535;SDS011;58089;48.752;11.338;2022-11-21T16:52:08;9.57;;;5.03;;
70535;SDS011;58089;48.752;11.338;2022-11-21T16:54:34;9.70;;;4.37;;
70535;SDS011;58089;48.752;11.338;2022-11-21T16:56:59;9.20;;;4.83;;
70535;SDS011;58089;48.752;11.338;2022-11-21T16:59:24;12.18;;;5.18;;
70535;SDS011;58089;48.752;11.338;2022-11-21T17:01:50;21.70;;;10.20;;
70535;SDS011;58089;48.752;11.338;2022-11-21T17:04:16;19.77;;;9.83;;
70535;SDS011;58089;48.752;11.338;2022-11-21T17:06:41;17.75;;;9.18;;
70535;SDS011;58089;48.752;11.338;2022-11-21T17:09:06;27.93;;;13.27;;
70535;SDS011;58089;48.752;11.338;2022-11-21T17:11:32;28.90;;;15.87;;
70535;SDS011;58089;48.752;11.338;2022-11-21T17:14:00;18.80;;;11.27;;
70535;SDS011;58089;48.752;11.338;2022-11-21T17:16:27;17.73;;;8.95;;
70535;SDS011;58089;48.752;11.338;2022-11-21T17:18:53;18.83;;;8.55;;
70535;SDS011;58089;48.752;11.338;2022-11-21T17:21:19;20.67;;;9.00;;
70535;SDS011;58089;48.752;11.338;2022-11-21T17:23:45;22.35;;;8.93;;
70535;SDS011;58089;48.752;11.338;2022-11-21T17:26:11;16.47;;;8.20;;
70535;SDS011;58089;48.752;11.338;2022-11-21T17:28:41;16.50;;;7.90;;
70535;SDS011;58089;48.752;11.338;2022-11-21T17:31:10;18.27;;;8.97;;
70535;SDS011;58089;48.752;11.338;2022-11-21T17:33:37;16.85;;;8.13;;
70535;SDS011;58089;48.752;11.338;2022-11-21T17:36:03;14.57;;;7.20;;
70535;SDS011;58089;48.752;11.338;2022-11-21T17:38:29;18.58;;;8.15;;
70535;SDS011;58089;48.752;11.338;2022-11-21T17:40:58;13.50;;;6.53;;
70535;SDS011;58089;48.752;11.338;2022-11-21T17:43:24;14.05;;;6.15;;
70535;SDS011;58089;48.752;11.338;2022-11-21T17:45:50;12.93;;;5.50;;
70535;SDS011;58089;48.752;11.338;2022-11-21T17:48:15;11.73;;;5.93;;
70535;SDS011;58089;48.752;11.338;2022-11-21T17:50:40;13.03;;;5.87;;
70535;SDS011;58089;48.752;11.338;2022-11-21T17:53:05;9.87;;;4.80;;
70535;SDS011;58089;48.752;11.338;2022-11-21T17:55:31;10.77;;;5.47;;
70535;SDS011;58089;48.752;11.338;2022-11-21T17:57:56;11.20;;;5.40;;
70535;SDS011;58089;48.752;11.338;2022-11-21T18:00:22;23.00;;;5.90;;
70535;SDS011;58089;48.752;11.338;2022-11-21T18:02:47;12.38;;;5.45;;
70535;SDS011;58089;48.752;11.338;2022-11-21T18:05:13;11.87;;;5.20;;
70535;SDS011;58089;48.752;11.338;2022-11-21T18:07:38;13.93;;;7.47;;
70535;SDS011;58089;48.752;11.338;2022-11-21T18:10:03;11.97;;;6.60;;
70535;SDS011;58089;48.752;11.338;2022-11-21T18:12:29;10.80;;;5.20;;
70535;SDS011;58089;48.752;11.338;2022-11-21T18:14:54;11.97;;;4.83;;
70535;SDS011;58089;48.752;11.338;2022-11-21T18:17:20;11.07;;;4.78;;
70535;SDS011;58089;48.752;11.338;2022-11-21T18:19:45;11.27;;;4.50;;
70535;SDS011;58089;48.752;11.338;2022-11-21T18:22:10;14.50;;;6.00;;
70535;SDS011;58089;48.752;11.338;2022-11-21T18:24:35;42.60;;;24.63;;
70535;SDS011;58089;48.752;11.338;2022-11-21T18:27:01;30.37;;;18.27;;
70535;SDS011;58089;48.752;11.338;2022-11-21T18:29:26;18.50;;;11.77;;
70535;SDS011;58089;48.752;11.338;2022-11-21T18:31:51;21.37;;;15.07;;
70535;SDS011;58089;48.752;11.338;2022-11-21T18:34:17;25.53;;;15.20;;
70535;SDS011;58089;48.752;11.338;2022-11-21T18:36:42;21.73;;;13.25;;
70535;SDS011;58089;48.752;11.338;2022-11-21T18:39:07;23.13;;;14.23;;
70535;SDS011;58089;48.752;11.338;2022-11-21T18:41:33;29.13;;;16.47;;
70535;SDS011;58089;48.752;11.338;2022-11-21T18:44:02;27.63;;;15.70;;
70535;SDS011;58089;48.752;11.338;2022-11-21T18:46:29;22.17;;;13.02;;
70535;SDS011;58089;48.752;11.338;2022-11-21T18:48:56;20.65;;;13.77;;
70535;SDS011;58089;48.752;11.338;2022-11-21T18:51:26;25.90;;;16.33;;
70535;SDS011;58089;48.752;11.338;2022-11-21T18:53:53;25.20;;;15.70;;
70535;SDS011;58089;48.752;11.338;2022-11-21T18:56:20;28.38;;;16.17;;
70535;SDS011;58089;48.752;11.338;2022-11-21T18:58:46;27.77;;;15.75;;
70535;SDS011;58089;48.752;11.338;2022-11-21T19:01:16;42.65;;;21.58;;
70535;SDS011;58089;48.752;11.338;2022-11-21T19:03:43;46.13;;;24.17;;
70535;SDS011;58089;48.752;11.338;2022-11-21T19:06:09;33.73;;;17.90;;
70535;SDS011;58089;48.752;11.338;2022-11-21T19:08:36;37.97;;;23.10;;
70535;SDS011;58089;48.752;11.338;2022-11-21T19:11:02;33.97;;;19.43;;
70535;SDS011;58089;48.752;11.338;2022-11-21T19:13:28;25.90;;;14.85;;
70535;SDS011;58089;48.752;11.338;2022-11-21T19:15:53;19.07;;;10.50;;
70535;SDS011;58089;48.752;11.338;2022-11-21T19:18:18;21.93;;;13.97;;
70535;SDS011;58089;48.752;11.338;2022-11-21T19:20:44;23.27;;;13.63;;
70535;SDS011;58089;48.752;11.338;2022-11-21T19:23:09;17.53;;;11.00;;
70535;SDS011;58089;48.752;11.338;2022-11-21T19:25:34;22.00;;;12.77;;
70535;SDS011;58089;48.752;11.338;2022-11-21T19:27:59;38.17;;;22.50;;
70535;SDS011;58089;48.752;11.338;2022-11-21T19:30:25;40.13;;;25.83;;
70535;SDS011;58089;48.752;11.338;2022-11-21T19:32:51;33.03;;;23.80;;
70535;SDS011;58089;48.752;11.338;2022-11-21T19:35:16;27.80;;;20.13;;
70535;SDS011;58089;48.752;11.338;2022-11-21T19:37:42;22.20;;;16.40;;
70535;SDS011;58089;48.752;11.338;2022-11-21T19:40:09;15.13;;;10.98;;
70535;SDS011;58089;48.752;11.338;2022-11-21T19:42:35;17.45;;;9.65;;
70535;SDS011;58089;48.752;11.338;2022-11-21T19:45:01;13.30;;;7.88;;
70535;SDS011;58089;48.752;11.338;2022-11-21T19:47:28;11.10;;;6.80;;
70535;SDS011;58089;48.752;11.338;2022-11-21T19:49:53;17.63;;;9.80;;
70535;SDS011;58089;48.752;11.338;2022-11-21T19:52:20;12.63;;;7.93;;
70535;SDS011;58089;48.752;11.338;2022-11-21T19:54:45;11.33;;;5.83;;
70535;SDS011;58089;48.752;11.338;2022-11-21T19:57:10;11.95;;;6.00;;
70535;SDS011;58089;48.752;11.338;2022-11-21T19:59:35;14.50;;;6.50;;
70535;SDS011;58089;48.752;11.338;2022-11-21T20:02:01;14.97;;;7.97;;
70535;SDS011;58089;48.752;11.338;2022-11-21T20:04:26;16.07;;;8.40;;
70535;SDS011;58089;48.752;11.338;2022-11-21T20:06:51;17.00;;;8.30;;
70535;SDS011;58089;48.752;11.338;2022-11-21T20:09:18;13.18;;;7.30;;
70535;SDS011;58089;48.752;11.338;2022-11-21T20:11:46;10.87;;;5.30;;
70535;SDS011;58089;48.752;11.338;2022-11-21T20:14:12;9.15;;;5.18;;
70535;SDS011;58089;48.752;11.338;2022-11-21T20:16:47;13.10;;;5.05;;
70535;SDS011;58089;48.752;11.338;2022-11-21T20:19:14;12.47;;;6.13;;
70535;SDS011;58089;48.752;11.338;2022-11-21T20:21:40;12.40;;;6.35;;
70535;SDS011;58089;48.752;11.338;2022-11-21T20:24:06;15.68;;;6.07;;
70535;SDS011;58089;48.752;11.338;2022-11-21T20:26:32;12.67;;;6.40;;
70535;SDS011;58089;48.752;11.338;2022-11-21T20:28:58;14.07;;;7.70;;
70535;SDS011;58089;48.752;11.338;2022-11-21T20:31:24;10.33;;;5.43;;
70535;SDS011;58089;48.752;11.338;2022-11-21T20:33:52;13.20;;;5.70;;
70535;SDS011;58089;48.752;11.338;2022-11-21T20:36:24;14.73;;;7.18;;
70535;SDS011;58089;48.752;11.338;2022-11-21T20:38:58;17.63;;;8.13;;
70535;SDS011;58089;48.752;11.338;2022-11-21T20:41:26;19.47;;;8.97;;
70535;SDS011;58089;48.752;11.338;2022-11-21T20:43:53;17.67;;;8.10;;
70535;SDS011;58089;48.752;11.338;2022-11-21T20:46:22;17.02;;;6.63;;
70535;SDS011;58089;48.752;11.338;2022-11-21T20:48:48;15.87;;;7.33;;
70535;SDS011;58089;48.752;11.338;2022-11-21T20:51:13;15.68;;;8.18;;
70535;SDS011;58089;48.752;11.338;2022-11-21T20:53:38;11.07;;;6.13;;
70535;SDS011;58089;48.752;11.338;2022-11-21T20:56:05;9.37;;;4.90;;
70535;SDS011;58089;48.752;11.338;2022-11-21T20:58:33;11.05;;;5.00;;
70535;SDS011;58089;48.752;11.338;2022-11-21T21:01:00;20.23;;;12.20;;
70535;SDS011;58089;48.752;11.338;2022-11-21T21:03:25;18.97;;;10.43;;
70535;SDS011;58089;48.752;11.338;2022-11-21T21:05:53;14.80;;;9.32;;
70535;SDS011;58089;48.752;11.338;2022-11-21T21:08:22;18.98;;;9.80;;
70535;SDS011;58089;48.752;11.338;2022-11-21T21:10:48;18.17;;;8.73;;
70535;SDS011;58089;48.752;11.338;2022-11-21T21:13:13;16.00;;;7.50;;
70535;SDS011;58089;48.752;11.338;2022-11-21T21:15:38;11.37;;;6.47;;
70535;SDS011;58089;48.752;11.338;2022-11-21T21:18:03;11.83;;;6.27;;
70535;SDS011;58089;48.752;11.338;2022-11-21T21:20:29;12.80;;;5.93;;
70535;SDS011;58089;48.752;11.338;2022-11-21T21:22:54;13.23;;;6.50;;
70535;SDS011;58089;48.752;11.338;2022-11-21T21:25:20;20.58;;;7.38;;
70535;SDS011;58089;48.752;11.338;2022-11-21T21:27:46;16.23;;;6.67;;
70535;SDS011;58089;48.752;11.338;2022-11-21T21:30:14;16.95;;;9.10;;
70535;SDS011;58089;48.752;11.338;2022-11-21T21:32:40;15.52;;;7.93;;
70535;SDS011;58089;48.752;11.338;2022-11-21T21:35:08;13.87;;;6.57;;
70535;SDS011;58089;48.752;11.338;2022-11-21T21:37:34;13.25;;;7.03;;
70535;SDS011;58089;48.752;11.338;2022-11-21T21:39:59;16.97;;;7.87;;
70535;SDS011;58089;48.752;11.338;2022-11-21T21:42:25;11.87;;;5.40;;
70535;SDS011;58089;48.752;11.338;2022-11-21T21:44:50;9.07;;;4.47;;
70535;SDS011;58089;48.752;11.338;2022-11-21T21:47:15;12.60;;;5.57;;
70535;SDS011;58089;48.752;11.338;2022-11-21T21:49:41;18.33;;;8.88;;
70535;SDS011;58089;48.752;11.338;2022-11-21T21:52:06;11.93;;;5.90;;
70535;SDS011;58089;48.752;11.338;2022-11-21T21:54:32;13.33;;;6.73;;
70535;SDS011;58089;48.752;11.338;2022-11-21T21:56:57;9.90;;;4.80;;
70535;SDS011;58089;48.752;11.338;2022-11-21T21:59:22;12.50;;;5.63;;
70535;SDS011;58089;48.752;11.338;2022-11-21T22:01:49;25.67;;;12.57;;
70535;SDS011;58089;48.752;11.338;2022-11-21T22:04:14;19.20;;;9.23;;
70535;SDS011;58089;48.752;11.338;2022-11-21T22:06:40;28.60;;;12.17;;
70535;SDS011;58089;48.752;11.338;2022-11-21T22:09:05;31.37;;;12.80;;
70535;SDS011;58089;48.752;11.338;2022-11-21T22:11:31;11.23;;;5.17;;
70535;SDS011;58089;48.752;11.338;2022-11-21T22:14:00;8.07;;;3.63;;
70535;SDS011;58089;48.752;11.338;2022-11-21T22:16:27;9.95;;;3.80;;
70535;SDS011;58089;48.752;11.338;2022-11-21T22:18:53;9.40;;;3.57;;
70535;SDS011;58089;48.752;11.338;2022-11-21T22:23:45;10.63;;;3.35;;
70535;SDS011;58089;48.752;11.338;2022-11-21T22:26:11;7.93;;;4.43;;
70535;SDS011;58089;48.752;11.338;2022-11-21T22:28:37;10.00;;;3.57;;
70535;SDS011;58089;48.752;11.338;2022-11-21T22:31:03;8.32;;;3.25;;
70535;SDS011;58089;48.752;11.338;2022-11-21T22:33:29;6.77;;;3.23;;
70535;SDS011;58089;48.752;11.338;2022-11-21T22:35:58;7.43;;;3.10;;
70535;SDS011;58089;48.752;11.338;2022-11-21T22:38:27;11.30;;;3.10;;
70535;SDS011;58089;48.752;11.338;2022-11-21T22:40:58;9.30;;;3.33;;
70535;SDS011;58089;48.752;11.338;2022-11-21T22:43:27;7.75;;;3.13;;
70535;SDS011;58089;48.752;11.338;2022-11-21T22:45:53;7.80;;;2.72;;
70535;SDS011;58089;48.752;11.338;2022-11-21T22:48:18;7.77;;;2.90;;
70535;SDS011;58089;48.752;11.338;2022-11-21T22:50:43;7.57;;;2.97;;
70535;SDS011;58089;48.752;11.338;2022-11-21T22:53:09;7.90;;;2.90;;
70535;SDS011;58089;48.752;11.338;2022-11-21T22:55:34;7.47;;;3.40;;
70535;SDS011;58089;48.752;11.338;2022-11-21T22:57:59;6.43;;;2.80;;
70535;SDS011;58089;48.752;11.338;2022-11-21T23:00:24;7.97;;;3.17;;
